sensor_id;sensor_type;location;lat;lon;timestamp;P1;durP1;ratioP1;P2;durP2;ratioP2
70365;SDS011;57787;48.216;12.396;2022-07-01T00:00:18;4.43;;;2.00;;
70365;SDS011;57787;48.216;12.396;2022-07-01T00:02:45;2.97;;;1.75;;
70365;SDS011;57787;48.216;12.396;2022-07-01T00:05:12;2.45;;;2.10;;
70365;SDS011;57787;48.216;12.396;2022-07-01T00:07:43;2.22;;;1.73;;
70365;SDS011;57787;48.216;12.396;2022-07-01T00:10:10;3.33;;;1.80;;
70365;SDS011;57787;48.216;12.396;2022-07-01T00:12:41;5.05;;;1.60;;
70365;SDS011;57787;48.216;12.396;2022-07-01T00:15:08;2.95;;;1.85;;
70365;SDS011;57787;48.216;12.396;2022-07-01T00:20:03;6.15;;;1.75;;
70365;SDS011;57787;48.216;12.396;2022-07-01T00:22:30;4.38;;;2.42;;
70365;SDS011;57787;48.216;12.396;2022-07-01T00:24:57;2.55;;;1.75;;
70365;SDS011;57787;48.216;12.396;2022-07-01T00:27:25;2.35;;;1.58;;
70365;SDS011;57787;48.216;12.396;2022-07-01T00:29:52;4.70;;;1.75;;
70365;SDS011;57787;48.216;12.396;2022-07-01T00:32:19;9.02;;;1.58;;
70365;SDS011;57787;48.216;12.396;2022-07-01T00:34:46;3.28;;;1.70;;
70365;SDS011;57787;48.216;12.396;2022-07-01T00:37:13;2.40;;;1.60;;
70365;SDS011;57787;48.216;12.396;2022-07-01T00:39:42;5.75;;;1.70;;
70365;SDS011;57787;48.216;12.396;2022-07-01T00:42:09;3.75;;;1.25;;
70365;SDS011;57787;48.216;12.396;2022-07-01T00:47:10;1.88;;;1.20;;
70365;SDS011;57787;48.216;12.396;2022-07-01T00:49:39;9.07;;;2.08;;
70365;SDS011;57787;48.216;12.396;2022-07-01T00:52:09;3.92;;;1.55;;
70365;SDS011;57787;48.216;12.396;2022-07-01T00:54:37;4.15;;;1.48;;
70365;SDS011;57787;48.216;12.396;2022-07-01T00:57:08;2.10;;;1.40;;
70365;SDS011;57787;48.216;12.396;2022-07-01T00:59:37;2.30;;;1.20;;
70365;SDS011;57787;48.216;12.396;2022-07-01T01:02:06;2.70;;;1.77;;
70365;SDS011;57787;48.216;12.396;2022-07-01T01:04:35;4.93;;;2.03;;
70365;SDS011;57787;48.216;12.396;2022-07-01T01:07:05;3.80;;;1.80;;
70365;SDS011;57787;48.216;12.396;2022-07-01T01:09:32;6.70;;;2.15;;
70365;SDS011;57787;48.216;12.396;2022-07-01T01:12:00;3.78;;;1.85;;
70365;SDS011;57787;48.216;12.396;2022-07-01T01:14:28;4.57;;;2.20;;
70365;SDS011;57787;48.216;12.396;2022-07-01T01:16:56;4.32;;;2.05;;
70365;SDS011;57787;48.216;12.396;2022-07-01T01:19:23;4.32;;;2.28;;
70365;SDS011;57787;48.216;12.396;2022-07-01T01:21:50;4.60;;;2.45;;
70365;SDS011;57787;48.216;12.396;2022-07-01T01:24:18;6.82;;;3.05;;
70365;SDS011;57787;48.216;12.396;2022-07-01T01:26:46;4.68;;;2.70;;
70365;SDS011;57787;48.216;12.396;2022-07-01T01:29:13;6.63;;;2.90;;
70365;SDS011;57787;48.216;12.396;2022-07-01T01:31:40;5.65;;;3.35;;
70365;SDS011;57787;48.216;12.396;2022-07-01T01:34:10;4.03;;;3.00;;
70365;SDS011;57787;48.216;12.396;2022-07-01T01:36:38;7.22;;;3.50;;
70365;SDS011;57787;48.216;12.396;2022-07-01T01:39:05;5.63;;;3.15;;
70365;SDS011;57787;48.216;12.396;2022-07-01T01:41:38;4.80;;;3.03;;
70365;SDS011;57787;48.216;12.396;2022-07-01T01:44:05;6.22;;;2.90;;
70365;SDS011;57787;48.216;12.396;2022-07-01T01:46:32;7.18;;;3.10;;
70365;SDS011;57787;48.216;12.396;2022-07-01T01:49:00;5.43;;;2.75;;
70365;SDS011;57787;48.216;12.396;2022-07-01T01:51:27;5.35;;;3.05;;
70365;SDS011;57787;48.216;12.396;2022-07-01T01:53:54;9.13;;;3.30;;
70365;SDS011;57787;48.216;12.396;2022-07-01T01:56:24;8.98;;;3.22;;
70365;SDS011;57787;48.216;12.396;2022-07-01T01:58:52;8.50;;;3.60;;
70365;SDS011;57787;48.216;12.396;2022-07-01T02:03:52;6.63;;;3.33;;
70365;SDS011;57787;48.216;12.396;2022-07-01T02:06:22;6.88;;;2.80;;
70365;SDS011;57787;48.216;12.396;2022-07-01T02:08:49;8.63;;;2.90;;
70365;SDS011;57787;48.216;12.396;2022-07-01T02:11:16;8.40;;;3.08;;
70365;SDS011;57787;48.216;12.396;2022-07-01T02:13:45;4.75;;;3.00;;
70365;SDS011;57787;48.216;12.396;2022-07-01T02:16:12;6.63;;;2.30;;
70365;SDS011;57787;48.216;12.396;2022-07-01T02:18:39;2.97;;;2.03;;
70365;SDS011;57787;48.216;12.396;2022-07-01T02:21:06;3.80;;;1.88;;
70365;SDS011;57787;48.216;12.396;2022-07-01T02:23:36;1.70;;;1.60;;
70365;SDS011;57787;48.216;12.396;2022-07-01T02:26:06;2.95;;;1.55;;
70365;SDS011;57787;48.216;12.396;2022-07-01T02:28:33;1.77;;;1.58;;
70365;SDS011;57787;48.216;12.396;2022-07-01T02:31:00;6.85;;;1.60;;
70365;SDS011;57787;48.216;12.396;2022-07-01T02:33:29;4.65;;;1.58;;
70365;SDS011;57787;48.216;12.396;2022-07-01T02:35:57;4.72;;;1.40;;
70365;SDS011;57787;48.216;12.396;2022-07-01T02:38:24;2.15;;;1.50;;
70365;SDS011;57787;48.216;12.396;2022-07-01T02:40:50;3.42;;;1.40;;
70365;SDS011;57787;48.216;12.396;2022-07-01T02:43:18;3.40;;;1.60;;
70365;SDS011;57787;48.216;12.396;2022-07-01T02:45:45;4.20;;;1.63;;
70365;SDS011;57787;48.216;12.396;2022-07-01T02:48:12;2.25;;;1.50;;
70365;SDS011;57787;48.216;12.396;2022-07-01T02:50:39;1.73;;;1.40;;
70365;SDS011;57787;48.216;12.396;2022-07-01T02:53:06;2.50;;;1.30;;
70365;SDS011;57787;48.216;12.396;2022-07-01T02:55:33;2.45;;;1.50;;
70365;SDS011;57787;48.216;12.396;2022-07-01T02:58:00;1.92;;;1.60;;
70365;SDS011;57787;48.216;12.396;2022-07-01T03:00:27;3.20;;;1.48;;
70365;SDS011;57787;48.216;12.396;2022-07-01T03:02:54;3.10;;;1.65;;
70365;SDS011;57787;48.216;12.396;2022-07-01T03:05:22;3.17;;;1.50;;
70365;SDS011;57787;48.216;12.396;2022-07-01T03:07:49;1.98;;;1.50;;
70365;SDS011;57787;48.216;12.396;2022-07-01T03:10:16;3.80;;;1.73;;
70365;SDS011;57787;48.216;12.396;2022-07-01T03:12:43;2.58;;;1.85;;
70365;SDS011;57787;48.216;12.396;2022-07-01T03:15:11;2.40;;;1.75;;
70365;SDS011;57787;48.216;12.396;2022-07-01T03:17:40;3.92;;;1.85;;
70365;SDS011;57787;48.216;12.396;2022-07-01T03:20:10;2.97;;;1.80;;
70365;SDS011;57787;48.216;12.396;2022-07-01T03:22:38;4.28;;;1.80;;
70365;SDS011;57787;48.216;12.396;2022-07-01T03:25:06;2.75;;;1.60;;
70365;SDS011;57787;48.216;12.396;2022-07-01T03:27:34;3.00;;;1.50;;
70365;SDS011;57787;48.216;12.396;2022-07-01T03:32:32;1.88;;;1.00;;
70365;SDS011;57787;48.216;12.396;2022-07-01T03:35:00;2.95;;;1.00;;
70365;SDS011;57787;48.216;12.396;2022-07-01T03:37:47;1.27;;;0.93;;
70365;SDS011;57787;48.216;12.396;2022-07-01T03:40:15;2.58;;;0.82;;
70365;SDS011;57787;48.216;12.396;2022-07-01T03:42:42;1.83;;;0.90;;
70365;SDS011;57787;48.216;12.396;2022-07-01T03:45:09;2.03;;;0.68;;
70365;SDS011;57787;48.216;12.396;2022-07-01T03:47:36;3.22;;;0.70;;
70365;SDS011;57787;48.216;12.396;2022-07-01T03:50:03;2.33;;;0.80;;
70365;SDS011;57787;48.216;12.396;2022-07-01T03:52:31;0.55;;;0.55;;
70365;SDS011;57787;48.216;12.396;2022-07-01T03:57:25;2.47;;;0.63;;
70365;SDS011;57787;48.216;12.396;2022-07-01T03:59:52;1.10;;;0.52;;
70365;SDS011;57787;48.216;12.396;2022-07-01T04:04:46;0.50;;;0.50;;
70365;SDS011;57787;48.216;12.396;2022-07-01T04:07:14;3.00;;;0.60;;
70365;SDS011;57787;48.216;12.396;2022-07-01T04:09:41;2.38;;;0.68;;
70365;SDS011;57787;48.216;12.396;2022-07-01T04:12:08;0.65;;;0.60;;
70365;SDS011;57787;48.216;12.396;2022-07-01T04:14:38;0.95;;;0.60;;
70365;SDS011;57787;48.216;12.396;2022-07-01T04:17:06;0.50;;;0.50;;
70365;SDS011;57787;48.216;12.396;2022-07-01T04:19:33;0.60;;;0.60;;
70365;SDS011;57787;48.216;12.396;2022-07-01T04:22:01;1.85;;;0.63;;
70365;SDS011;57787;48.216;12.396;2022-07-01T04:24:47;1.85;;;0.55;;
70365;SDS011;57787;48.216;12.396;2022-07-01T04:27:14;0.63;;;0.40;;
70365;SDS011;57787;48.216;12.396;2022-07-01T04:29:41;2.60;;;0.50;;
70365;SDS011;57787;48.216;12.396;2022-07-01T04:32:08;2.75;;;0.45;;
70365;SDS011;57787;48.216;12.396;2022-07-01T04:34:35;0.90;;;0.50;;
70365;SDS011;57787;48.216;12.396;2022-07-01T04:37:03;0.90;;;0.60;;
70365;SDS011;57787;48.216;12.396;2022-07-01T04:39:31;1.58;;;0.70;;
70365;SDS011;57787;48.216;12.396;2022-07-01T04:41:58;1.05;;;0.52;;
70365;SDS011;57787;48.216;12.396;2022-07-01T04:44:28;2.38;;;0.50;;
70365;SDS011;57787;48.216;12.396;2022-07-01T04:47:00;0.63;;;0.52;;
70365;SDS011;57787;48.216;12.396;2022-07-01T04:49:28;1.77;;;0.60;;
70365;SDS011;57787;48.216;12.396;2022-07-01T04:51:56;0.70;;;0.60;;
70365;SDS011;57787;48.216;12.396;2022-07-01T04:54:24;0.98;;;0.50;;
70365;SDS011;57787;48.216;12.396;2022-07-01T04:56:54;0.60;;;0.60;;
70365;SDS011;57787;48.216;12.396;2022-07-01T04:59:21;0.70;;;0.47;;
70365;SDS011;57787;48.216;12.396;2022-07-01T05:01:48;1.77;;;0.50;;
70365;SDS011;57787;48.216;12.396;2022-07-01T05:04:16;0.60;;;0.40;;
70365;SDS011;57787;48.216;12.396;2022-07-01T05:06:44;2.65;;;0.65;;
70365;SDS011;57787;48.216;12.396;2022-07-01T05:09:11;0.95;;;0.50;;
70365;SDS011;57787;48.216;12.396;2022-07-01T05:11:39;1.08;;;0.60;;
70365;SDS011;57787;48.216;12.396;2022-07-01T05:14:07;0.30;;;0.30;;
70365;SDS011;57787;48.216;12.396;2022-07-01T05:16:34;0.50;;;0.50;;
70365;SDS011;57787;48.216;12.396;2022-07-01T05:19:02;3.80;;;0.50;;
70365;SDS011;57787;48.216;12.396;2022-07-01T05:21:49;1.48;;;0.57;;
70365;SDS011;57787;48.216;12.396;2022-07-01T05:24:29;1.27;;;0.50;;
70365;SDS011;57787;48.216;12.396;2022-07-01T05:26:58;0.52;;;0.50;;
70365;SDS011;57787;48.216;12.396;2022-07-01T05:29:26;0.40;;;0.40;;
70365;SDS011;57787;48.216;12.396;2022-07-01T05:31:54;1.02;;;0.50;;
70365;SDS011;57787;48.216;12.396;2022-07-01T05:34:21;0.40;;;0.40;;
70365;SDS011;57787;48.216;12.396;2022-07-01T05:36:49;0.55;;;0.45;;
70365;SDS011;57787;48.216;12.396;2022-07-01T05:39:16;0.40;;;0.40;;
70365;SDS011;57787;48.216;12.396;2022-07-01T05:41:43;0.50;;;0.50;;
70365;SDS011;57787;48.216;12.396;2022-07-01T05:44:10;0.63;;;0.63;;
70365;SDS011;57787;48.216;12.396;2022-07-01T05:46:38;0.40;;;0.40;;
70365;SDS011;57787;48.216;12.396;2022-07-01T05:49:05;1.42;;;0.50;;
70365;SDS011;57787;48.216;12.396;2022-07-01T05:51:32;1.38;;;0.63;;
70365;SDS011;57787;48.216;12.396;2022-07-01T05:56:27;0.98;;;0.47;;
70365;SDS011;57787;48.216;12.396;2022-07-01T05:58:54;0.60;;;0.50;;
70365;SDS011;57787;48.216;12.396;2022-07-01T06:01:21;0.40;;;0.30;;
70365;SDS011;57787;48.216;12.396;2022-07-01T06:03:48;1.80;;;0.50;;
70365;SDS011;57787;48.216;12.396;2022-07-01T06:06:15;0.90;;;0.43;;
70365;SDS011;57787;48.216;12.396;2022-07-01T06:08:44;2.67;;;0.60;;
70365;SDS011;57787;48.216;12.396;2022-07-01T06:11:12;0.43;;;0.40;;
70365;SDS011;57787;48.216;12.396;2022-07-01T06:16:07;1.33;;;0.40;;
70365;SDS011;57787;48.216;12.396;2022-07-01T06:18:35;0.60;;;0.60;;
70365;SDS011;57787;48.216;12.396;2022-07-01T06:21:01;1.35;;;0.50;;
70365;SDS011;57787;48.216;12.396;2022-07-01T06:23:28;0.55;;;0.50;;
70365;SDS011;57787;48.216;12.396;2022-07-01T06:25:55;0.98;;;0.47;;
70365;SDS011;57787;48.216;12.396;2022-07-01T06:28:22;1.80;;;0.50;;
70365;SDS011;57787;48.216;12.396;2022-07-01T06:30:52;2.47;;;0.63;;
70365;SDS011;57787;48.216;12.396;2022-07-01T06:33:21;0.90;;;0.40;;
70365;SDS011;57787;48.216;12.396;2022-07-01T06:38:14;0.60;;;0.40;;
70365;SDS011;57787;48.216;12.396;2022-07-01T06:40:41;0.55;;;0.45;;
70365;SDS011;57787;48.216;12.396;2022-07-01T06:43:08;1.67;;;0.60;;
70365;SDS011;57787;48.216;12.396;2022-07-01T06:45:35;0.98;;;0.60;;
70365;SDS011;57787;48.216;12.396;2022-07-01T06:48:02;1.30;;;0.50;;
70365;SDS011;57787;48.216;12.396;2022-07-01T06:50:30;2.15;;;0.70;;
70365;SDS011;57787;48.216;12.396;2022-07-01T06:55:23;1.27;;;0.60;;
70365;SDS011;57787;48.216;12.396;2022-07-01T06:57:50;0.52;;;0.50;;
70365;SDS011;57787;48.216;12.396;2022-07-01T07:00:17;2.53;;;0.68;;
70365;SDS011;57787;48.216;12.396;2022-07-01T07:02:44;0.82;;;0.50;;
70365;SDS011;57787;48.216;12.396;2022-07-01T07:07:38;0.70;;;0.50;;
70365;SDS011;57787;48.216;12.396;2022-07-01T07:10:05;0.80;;;0.55;;
70365;SDS011;57787;48.216;12.396;2022-07-01T07:12:33;0.88;;;0.50;;
70365;SDS011;57787;48.216;12.396;2022-07-01T07:17:27;0.50;;;0.50;;
70365;SDS011;57787;48.216;12.396;2022-07-01T07:19:54;0.73;;;0.70;;
70365;SDS011;57787;48.216;12.396;2022-07-01T07:22:22;0.82;;;0.60;;
70365;SDS011;57787;48.216;12.396;2022-07-01T07:24:49;0.68;;;0.60;;
70365;SDS011;57787;48.216;12.396;2022-07-01T07:29:43;1.70;;;0.50;;
70365;SDS011;57787;48.216;12.396;2022-07-01T07:32:09;4.95;;;0.80;;
70365;SDS011;57787;48.216;12.396;2022-07-01T07:34:36;1.00;;;0.60;;
70365;SDS011;57787;48.216;12.396;2022-07-01T07:37:04;1.75;;;0.77;;
70365;SDS011;57787;48.216;12.396;2022-07-01T07:41:58;1.70;;;0.60;;
70365;SDS011;57787;48.216;12.396;2022-07-01T07:44:26;1.42;;;0.52;;
70365;SDS011;57787;48.216;12.396;2022-07-01T07:46:53;2.63;;;0.60;;
70365;SDS011;57787;48.216;12.396;2022-07-01T07:51:47;1.50;;;0.65;;
70365;SDS011;57787;48.216;12.396;2022-07-01T07:56:41;4.32;;;1.10;;
70365;SDS011;57787;48.216;12.396;2022-07-01T07:59:11;1.05;;;0.90;;
70365;SDS011;57787;48.216;12.396;2022-07-01T08:01:38;1.27;;;0.80;;
70365;SDS011;57787;48.216;12.396;2022-07-01T08:04:06;0.98;;;0.60;;
70365;SDS011;57787;48.216;12.396;2022-07-01T08:06:33;0.50;;;0.50;;
70365;SDS011;57787;48.216;12.396;2022-07-01T08:11:27;1.50;;;0.60;;
70365;SDS011;57787;48.216;12.396;2022-07-01T08:16:21;1.83;;;0.70;;
70365;SDS011;57787;48.216;12.396;2022-07-01T08:21:15;0.90;;;0.43;;
70365;SDS011;57787;48.216;12.396;2022-07-01T08:26:10;7.53;;;0.77;;
70365;SDS011;57787;48.216;12.396;2022-07-01T08:28:40;1.15;;;0.80;;
70365;SDS011;57787;48.216;12.396;2022-07-01T08:31:08;1.20;;;0.60;;
70365;SDS011;57787;48.216;12.396;2022-07-01T08:33:35;1.35;;;0.70;;
70365;SDS011;57787;48.216;12.396;2022-07-01T08:36:07;0.98;;;0.70;;
70365;SDS011;57787;48.216;12.396;2022-07-01T08:38:36;0.70;;;0.70;;
70365;SDS011;57787;48.216;12.396;2022-07-01T08:41:05;0.55;;;0.55;;
70365;SDS011;57787;48.216;12.396;2022-07-01T08:43:33;0.70;;;0.60;;
70365;SDS011;57787;48.216;12.396;2022-07-01T08:46:01;0.73;;;0.70;;
70365;SDS011;57787;48.216;12.396;2022-07-01T08:48:28;0.63;;;0.60;;
70365;SDS011;57787;48.216;12.396;2022-07-01T08:50:56;0.63;;;0.60;;
70365;SDS011;57787;48.216;12.396;2022-07-01T08:55:50;1.95;;;0.70;;
70365;SDS011;57787;48.216;12.396;2022-07-01T08:58:35;3.15;;;0.60;;
70365;SDS011;57787;48.216;12.396;2022-07-01T09:01:14;0.50;;;0.40;;
70365;SDS011;57787;48.216;12.396;2022-07-01T09:03:55;1.38;;;0.68;;
70365;SDS011;57787;48.216;12.396;2022-07-01T09:06:38;1.10;;;0.70;;
70365;SDS011;57787;48.216;12.396;2022-07-01T09:09:12;2.00;;;0.85;;
70365;SDS011;57787;48.216;12.396;2022-07-01T09:11:52;1.55;;;0.80;;
70365;SDS011;57787;48.216;12.396;2022-07-01T09:14:22;0.90;;;0.80;;
70365;SDS011;57787;48.216;12.396;2022-07-01T09:16:52;1.10;;;0.88;;
70365;SDS011;57787;48.216;12.396;2022-07-01T09:19:22;1.13;;;0.70;;
70365;SDS011;57787;48.216;12.396;2022-07-01T09:21:56;1.02;;;0.70;;
70365;SDS011;57787;48.216;12.396;2022-07-01T09:24:37;1.13;;;0.80;;
70365;SDS011;57787;48.216;12.396;2022-07-01T09:27:10;2.58;;;0.80;;
70365;SDS011;57787;48.216;12.396;2022-07-01T09:32:12;0.73;;;0.70;;
70365;SDS011;57787;48.216;12.396;2022-07-01T09:34:47;1.38;;;0.75;;
70365;SDS011;57787;48.216;12.396;2022-07-01T09:37:19;4.78;;;1.02;;
70365;SDS011;57787;48.216;12.396;2022-07-01T09:39:52;1.00;;;0.80;;
70365;SDS011;57787;48.216;12.396;2022-07-01T09:42:21;3.90;;;1.50;;
70365;SDS011;57787;48.216;12.396;2022-07-01T09:47:28;2.30;;;1.20;;
70365;SDS011;57787;48.216;12.396;2022-07-01T09:49:59;2.55;;;1.00;;
70365;SDS011;57787;48.216;12.396;2022-07-01T09:52:28;2.25;;;1.58;;
70365;SDS011;57787;48.216;12.396;2022-07-01T09:55:03;2.95;;;1.80;;
70365;SDS011;57787;48.216;12.396;2022-07-01T09:57:34;3.35;;;2.20;;
70365;SDS011;57787;48.216;12.396;2022-07-01T10:00:03;4.25;;;2.15;;
70365;SDS011;57787;48.216;12.396;2022-07-01T10:02:31;4.47;;;3.13;;
70365;SDS011;57787;48.216;12.396;2022-07-01T10:05:07;3.95;;;1.75;;
70365;SDS011;57787;48.216;12.396;2022-07-01T10:13:04;0.35;;;0.35;;
70365;SDS011;57787;48.216;12.396;2022-07-01T10:15:33;0.90;;;0.50;;
70365;SDS011;57787;48.216;12.396;2022-07-01T10:18:02;0.95;;;0.40;;
70365;SDS011;57787;48.216;12.396;2022-07-01T10:20:30;0.28;;;0.20;;
70365;SDS011;57787;48.216;12.396;2022-07-01T10:25:34;0.50;;;0.40;;
70365;SDS011;57787;48.216;12.396;2022-07-01T10:31:16;0.95;;;0.50;;
70365;SDS011;57787;48.216;12.396;2022-07-01T10:39:08;1.65;;;0.68;;
70365;SDS011;57787;48.216;12.396;2022-07-01T10:44:39;0.85;;;0.57;;
70365;SDS011;57787;48.216;12.396;2022-07-01T10:47:07;0.80;;;0.80;;
70365;SDS011;57787;48.216;12.396;2022-07-01T10:52:08;2.08;;;1.10;;
70365;SDS011;57787;48.216;12.396;2022-07-01T10:59:49;4.22;;;1.00;;
70365;SDS011;57787;48.216;12.396;2022-07-01T11:04:55;1.17;;;0.88;;
70365;SDS011;57787;48.216;12.396;2022-07-01T11:07:25;4.60;;;1.08;;
70365;SDS011;57787;48.216;12.396;2022-07-01T11:09:53;1.60;;;1.17;;
70365;SDS011;57787;48.216;12.396;2022-07-01T11:12:21;4.32;;;1.15;;
70365;SDS011;57787;48.216;12.396;2022-07-01T11:14:51;1.20;;;1.10;;
70365;SDS011;57787;48.216;12.396;2022-07-01T11:17:19;1.33;;;0.93;;
70365;SDS011;57787;48.216;12.396;2022-07-01T11:19:57;4.97;;;1.00;;
70365;SDS011;57787;48.216;12.396;2022-07-01T11:22:26;2.78;;;1.30;;
70365;SDS011;57787;48.216;12.396;2022-07-01T11:24:59;2.53;;;1.10;;
70365;SDS011;57787;48.216;12.396;2022-07-01T11:27:33;1.75;;;0.98;;
70365;SDS011;57787;48.216;12.396;2022-07-01T11:30:02;3.22;;;1.02;;
70365;SDS011;57787;48.216;12.396;2022-07-01T11:32:38;1.25;;;0.95;;
70365;SDS011;57787;48.216;12.396;2022-07-01T11:35:30;1.45;;;1.00;;
70365;SDS011;57787;48.216;12.396;2022-07-01T11:38:28;0.80;;;0.80;;
70365;SDS011;57787;48.216;12.396;2022-07-01T11:41:23;1.02;;;0.90;;
70365;SDS011;57787;48.216;12.396;2022-07-01T11:43:52;2.03;;;0.70;;
70365;SDS011;57787;48.216;12.396;2022-07-01T11:46:20;1.55;;;0.60;;
70365;SDS011;57787;48.216;12.396;2022-07-01T11:48:51;3.60;;;0.55;;
70365;SDS011;57787;48.216;12.396;2022-07-01T11:51:19;2.78;;;0.55;;
70365;SDS011;57787;48.216;12.396;2022-07-01T11:53:49;0.68;;;0.57;;
70365;SDS011;57787;48.216;12.396;2022-07-01T11:56:27;2.05;;;0.60;;
70365;SDS011;57787;48.216;12.396;2022-07-01T11:59:01;0.50;;;0.50;;
70365;SDS011;57787;48.216;12.396;2022-07-01T12:01:29;0.73;;;0.50;;
70365;SDS011;57787;48.216;12.396;2022-07-01T12:04:00;1.10;;;0.60;;
70365;SDS011;57787;48.216;12.396;2022-07-01T12:06:30;0.85;;;0.40;;
70365;SDS011;57787;48.216;12.396;2022-07-01T12:08:59;2.20;;;0.57;;
70365;SDS011;57787;48.216;12.396;2022-07-01T12:11:28;0.77;;;0.60;;
70365;SDS011;57787;48.216;12.396;2022-07-01T12:14:05;1.23;;;0.55;;
70365;SDS011;57787;48.216;12.396;2022-07-01T12:16:38;3.22;;;0.60;;
70365;SDS011;57787;48.216;12.396;2022-07-01T12:19:06;1.50;;;0.50;;
70365;SDS011;57787;48.216;12.396;2022-07-01T12:21:55;1.75;;;0.50;;
70365;SDS011;57787;48.216;12.396;2022-07-01T12:24:29;0.50;;;0.50;;
70365;SDS011;57787;48.216;12.396;2022-07-01T12:27:03;1.38;;;0.65;;
70365;SDS011;57787;48.216;12.396;2022-07-01T12:32:19;1.85;;;1.00;;
70365;SDS011;57787;48.216;12.396;2022-07-01T12:34:51;1.15;;;0.73;;
70365;SDS011;57787;48.216;12.396;2022-07-01T12:37:30;1.98;;;0.90;;
70365;SDS011;57787;48.216;12.396;2022-07-01T12:40:08;0.77;;;0.60;;
70365;SDS011;57787;48.216;12.396;2022-07-01T12:42:51;0.77;;;0.55;;
70365;SDS011;57787;48.216;12.396;2022-07-01T12:45:28;2.50;;;0.73;;
70365;SDS011;57787;48.216;12.396;2022-07-01T12:50:37;2.55;;;0.80;;
70365;SDS011;57787;48.216;12.396;2022-07-01T12:53:06;0.68;;;0.68;;
70365;SDS011;57787;48.216;12.396;2022-07-01T12:55:49;0.93;;;0.65;;
70365;SDS011;57787;48.216;12.396;2022-07-01T12:58:25;3.85;;;0.70;;
70365;SDS011;57787;48.216;12.396;2022-07-01T13:00:57;1.58;;;0.70;;
70365;SDS011;57787;48.216;12.396;2022-07-01T13:03:25;2.90;;;0.80;;
70365;SDS011;57787;48.216;12.396;2022-07-01T13:05:57;0.90;;;0.73;;
70365;SDS011;57787;48.216;12.396;2022-07-01T13:08:26;2.78;;;0.80;;
70365;SDS011;57787;48.216;12.396;2022-07-01T13:10:54;0.75;;;0.73;;
70365;SDS011;57787;48.216;12.396;2022-07-01T13:13:30;2.65;;;1.00;;
70365;SDS011;57787;48.216;12.396;2022-07-01T13:15:58;2.78;;;1.20;;
70365;SDS011;57787;48.216;12.396;2022-07-01T13:18:25;1.95;;;1.00;;
70365;SDS011;57787;48.216;12.396;2022-07-01T13:20:54;0.88;;;0.75;;
70365;SDS011;57787;48.216;12.396;2022-07-01T13:23:22;1.52;;;0.80;;
70365;SDS011;57787;48.216;12.396;2022-07-01T13:25:49;1.40;;;1.08;;
70365;SDS011;57787;48.216;12.396;2022-07-01T13:28:16;0.82;;;0.70;;
70365;SDS011;57787;48.216;12.396;2022-07-01T13:30:43;2.00;;;1.02;;
70365;SDS011;57787;48.216;12.396;2022-07-01T13:33:10;1.60;;;0.80;;
70365;SDS011;57787;48.216;12.396;2022-07-01T13:35:37;1.10;;;0.98;;
70365;SDS011;57787;48.216;12.396;2022-07-01T13:38:06;4.03;;;1.10;;
70365;SDS011;57787;48.216;12.396;2022-07-01T13:40:34;2.30;;;1.00;;
70365;SDS011;57787;48.216;12.396;2022-07-01T13:43:01;2.55;;;1.42;;
70365;SDS011;57787;48.216;12.396;2022-07-01T13:45:30;2.17;;;1.25;;
70365;SDS011;57787;48.216;12.396;2022-07-01T13:47:58;4.80;;;1.30;;
70365;SDS011;57787;48.216;12.396;2022-07-01T13:50:29;2.13;;;1.15;;
70365;SDS011;57787;48.216;12.396;2022-07-01T13:52:56;2.25;;;1.20;;
70365;SDS011;57787;48.216;12.396;2022-07-01T13:55:29;3.90;;;1.20;;
70365;SDS011;57787;48.216;12.396;2022-07-01T13:57:57;2.28;;;1.20;;
70365;SDS011;57787;48.216;12.396;2022-07-01T14:00:24;1.52;;;1.25;;
70365;SDS011;57787;48.216;12.396;2022-07-01T14:02:51;2.10;;;1.00;;
70365;SDS011;57787;48.216;12.396;2022-07-01T14:05:18;1.10;;;1.00;;
70365;SDS011;57787;48.216;12.396;2022-07-01T14:07:45;1.30;;;1.20;;
70365;SDS011;57787;48.216;12.396;2022-07-01T14:10:12;3.17;;;1.20;;
70365;SDS011;57787;48.216;12.396;2022-07-01T14:12:40;1.55;;;1.33;;
70365;SDS011;57787;48.216;12.396;2022-07-01T14:15:08;1.30;;;1.05;;
70365;SDS011;57787;48.216;12.396;2022-07-01T14:17:35;2.20;;;1.30;;
70365;SDS011;57787;48.216;12.396;2022-07-01T14:20:04;1.95;;;1.10;;
70365;SDS011;57787;48.216;12.396;2022-07-01T14:22:31;1.65;;;1.27;;
70365;SDS011;57787;48.216;12.396;2022-07-01T14:24:58;1.30;;;1.20;;
70365;SDS011;57787;48.216;12.396;2022-07-01T14:27:25;2.15;;;1.23;;
70365;SDS011;57787;48.216;12.396;2022-07-01T14:29:52;1.77;;;1.52;;
70365;SDS011;57787;48.216;12.396;2022-07-01T14:32:23;3.58;;;1.20;;
70365;SDS011;57787;48.216;12.396;2022-07-01T14:34:54;1.67;;;1.30;;
70365;SDS011;57787;48.216;12.396;2022-07-01T14:39:48;2.20;;;1.25;;
70365;SDS011;57787;48.216;12.396;2022-07-01T14:42:24;4.75;;;1.48;;
70365;SDS011;57787;48.216;12.396;2022-07-01T14:44:53;3.10;;;1.50;;
70365;SDS011;57787;48.216;12.396;2022-07-01T14:47:21;16.45;;;1.60;;
70365;SDS011;57787;48.216;12.396;2022-07-01T14:49:50;2.08;;;1.48;;
70365;SDS011;57787;48.216;12.396;2022-07-01T14:52:18;4.78;;;1.63;;
70365;SDS011;57787;48.216;12.396;2022-07-01T14:54:46;1.48;;;1.33;;
70365;SDS011;57787;48.216;12.396;2022-07-01T14:57:12;2.00;;;1.33;;
70365;SDS011;57787;48.216;12.396;2022-07-01T14:59:39;3.95;;;1.48;;
70365;SDS011;57787;48.216;12.396;2022-07-01T15:02:06;1.75;;;1.60;;
70365;SDS011;57787;48.216;12.396;2022-07-01T15:04:35;2.05;;;1.58;;
70365;SDS011;57787;48.216;12.396;2022-07-01T15:09:30;4.10;;;1.48;;
70365;SDS011;57787;48.216;12.396;2022-07-01T15:11:57;2.00;;;1.73;;
70365;SDS011;57787;48.216;12.396;2022-07-01T15:14:24;5.35;;;1.42;;
70365;SDS011;57787;48.216;12.396;2022-07-01T15:16:52;2.22;;;1.67;;
70365;SDS011;57787;48.216;12.396;2022-07-01T15:19:21;2.38;;;1.80;;
70365;SDS011;57787;48.216;12.396;2022-07-01T15:21:48;3.42;;;1.85;;
70365;SDS011;57787;48.216;12.396;2022-07-01T15:24:23;3.03;;;1.80;;
70365;SDS011;57787;48.216;12.396;2022-07-01T15:26:50;2.97;;;1.50;;
70365;SDS011;57787;48.216;12.396;2022-07-01T15:29:18;2.42;;;1.60;;
70365;SDS011;57787;48.216;12.396;2022-07-01T15:31:45;3.38;;;1.70;;
70365;SDS011;57787;48.216;12.396;2022-07-01T15:34:16;1.95;;;1.50;;
70365;SDS011;57787;48.216;12.396;2022-07-01T15:36:45;2.60;;;1.42;;
70365;SDS011;57787;48.216;12.396;2022-07-01T15:39:14;2.05;;;1.60;;
70365;SDS011;57787;48.216;12.396;2022-07-01T15:41:41;2.38;;;1.70;;
70365;SDS011;57787;48.216;12.396;2022-07-01T15:44:09;3.67;;;1.80;;
70365;SDS011;57787;48.216;12.396;2022-07-01T15:46:37;2.75;;;1.65;;
70365;SDS011;57787;48.216;12.396;2022-07-01T15:49:06;2.42;;;1.75;;
70365;SDS011;57787;48.216;12.396;2022-07-01T15:51:34;2.28;;;1.75;;
70365;SDS011;57787;48.216;12.396;2022-07-01T15:54:02;4.25;;;1.85;;
70365;SDS011;57787;48.216;12.396;2022-07-01T15:56:29;6.97;;;2.00;;
70365;SDS011;57787;48.216;12.396;2022-07-01T15:58:57;3.20;;;2.13;;
70365;SDS011;57787;48.216;12.396;2022-07-01T16:01:24;1.92;;;1.48;;
70365;SDS011;57787;48.216;12.396;2022-07-01T16:03:55;7.03;;;1.90;;
70365;SDS011;57787;48.216;12.396;2022-07-01T16:06:22;1.95;;;1.70;;
70365;SDS011;57787;48.216;12.396;2022-07-01T16:08:57;2.42;;;1.42;;
70365;SDS011;57787;48.216;12.396;2022-07-01T16:11:27;1.63;;;1.25;;
70365;SDS011;57787;48.216;12.396;2022-07-01T16:13:55;1.60;;;1.30;;
70365;SDS011;57787;48.216;12.396;2022-07-01T16:16:29;1.90;;;1.35;;
70365;SDS011;57787;48.216;12.396;2022-07-01T16:18:59;1.42;;;1.08;;
70365;SDS011;57787;48.216;12.396;2022-07-01T16:21:29;7.50;;;1.60;;